Аэропорт: Гостомель. Киев

ICAO: UKKM

METAR:
2020-10-19 22:00:00
UKKM 192200Z AUTO 24002MPS 9999 // NCD 03/03 Q1023
METAR:
2020-10-19 17:03:00
TAF UKKM 191703Z 1918/2018 26003MPS 9999 SCT020 TX11/2012Z TN01/2004Z BECMG 2006/2007 27005G10MPS TEMPO 2007/2015 29007G12MPS